sensor_id;sensor_type;location;lat;lon;timestamp;P1;durP1;ratioP1;P2;durP2;ratioP2
12947;SDS011;6539;49.476;8.484;2023-04-06T00:00:35;12.80;;;8.00;;
12947;SDS011;6539;49.476;8.484;2023-04-06T00:03:03;12.60;;;8.23;;
12947;SDS011;6539;49.476;8.484;2023-04-06T00:05:31;11.90;;;8.47;;
12947;SDS011;6539;49.476;8.484;2023-04-06T00:07:57;12.40;;;8.73;;
12947;SDS011;6539;49.476;8.484;2023-04-06T00:10:26;13.77;;;8.07;;
12947;SDS011;6539;49.476;8.484;2023-04-06T00:12:54;16.30;;;9.03;;
12947;SDS011;6539;49.476;8.484;2023-04-06T00:15:21;13.20;;;9.83;;
12947;SDS011;6539;49.476;8.484;2023-04-06T00:17:49;12.00;;;8.97;;
12947;SDS011;6539;49.476;8.484;2023-04-06T00:20:15;12.07;;;8.93;;
12947;SDS011;6539;49.476;8.484;2023-04-06T00:22:42;13.03;;;8.93;;
12947;SDS011;6539;49.476;8.484;2023-04-06T00:25:09;15.60;;;9.03;;
12947;SDS011;6539;49.476;8.484;2023-04-06T00:27:36;13.10;;;9.17;;
12947;SDS011;6539;49.476;8.484;2023-04-06T00:30:06;16.13;;;8.60;;
12947;SDS011;6539;49.476;8.484;2023-04-06T00:32:36;10.40;;;8.00;;
12947;SDS011;6539;49.476;8.484;2023-04-06T00:35:05;10.70;;;7.70;;
12947;SDS011;6539;49.476;8.484;2023-04-06T00:37:31;16.80;;;8.77;;
12947;SDS011;6539;49.476;8.484;2023-04-06T00:40:02;12.83;;;8.60;;
12947;SDS011;6539;49.476;8.484;2023-04-06T00:42:29;11.70;;;8.00;;
12947;SDS011;6539;49.476;8.484;2023-04-06T00:44:56;14.83;;;9.57;;
12947;SDS011;6539;49.476;8.484;2023-04-06T00:47:28;11.47;;;7.90;;
12947;SDS011;6539;49.476;8.484;2023-04-06T00:49:54;14.60;;;8.60;;
12947;SDS011;6539;49.476;8.484;2023-04-06T00:52:20;12.03;;;8.10;;
12947;SDS011;6539;49.476;8.484;2023-04-06T00:54:46;13.27;;;8.07;;
12947;SDS011;6539;49.476;8.484;2023-04-06T00:57:12;12.23;;;8.30;;
12947;SDS011;6539;49.476;8.484;2023-04-06T00:59:39;14.67;;;8.20;;
12947;SDS011;6539;49.476;8.484;2023-04-06T01:02:08;12.63;;;8.70;;
12947;SDS011;6539;49.476;8.484;2023-04-06T01:04:36;11.67;;;8.27;;
12947;SDS011;6539;49.476;8.484;2023-04-06T01:07:05;11.73;;;8.27;;
12947;SDS011;6539;49.476;8.484;2023-04-06T01:09:31;12.47;;;8.43;;
12947;SDS011;6539;49.476;8.484;2023-04-06T01:11:58;13.17;;;8.73;;
12947;SDS011;6539;49.476;8.484;2023-04-06T01:14:24;15.80;;;8.53;;
12947;SDS011;6539;49.476;8.484;2023-04-06T01:16:53;16.43;;;8.50;;
12947;SDS011;6539;49.476;8.484;2023-04-06T01:19:24;12.40;;;9.10;;
12947;SDS011;6539;49.476;8.484;2023-04-06T01:21:53;12.57;;;9.47;;
12947;SDS011;6539;49.476;8.484;2023-04-06T01:24:21;18.57;;;9.47;;
12947;SDS011;6539;49.476;8.484;2023-04-06T01:26:47;10.90;;;8.57;;
12947;SDS011;6539;49.476;8.484;2023-04-06T01:29:13;11.60;;;8.57;;
12947;SDS011;6539;49.476;8.484;2023-04-06T01:31:39;11.37;;;8.10;;
12947;SDS011;6539;49.476;8.484;2023-04-06T01:34:05;12.07;;;8.23;;
12947;SDS011;6539;49.476;8.484;2023-04-06T01:36:33;9.60;;;8.10;;
12947;SDS011;6539;49.476;8.484;2023-04-06T01:39:02;13.03;;;7.77;;
12947;SDS011;6539;49.476;8.484;2023-04-06T01:41:27;12.17;;;8.60;;
12947;SDS011;6539;49.476;8.484;2023-04-06T01:43:55;9.77;;;8.20;;
12947;SDS011;6539;49.476;8.484;2023-04-06T01:46:21;12.77;;;8.60;;
12947;SDS011;6539;49.476;8.484;2023-04-06T01:48:47;13.23;;;8.00;;
12947;SDS011;6539;49.476;8.484;2023-04-06T01:51:16;13.93;;;8.70;;
12947;SDS011;6539;49.476;8.484;2023-04-06T01:53:42;14.83;;;9.00;;
12947;SDS011;6539;49.476;8.484;2023-04-06T01:56:08;12.60;;;8.53;;
12947;SDS011;6539;49.476;8.484;2023-04-06T01:58:36;10.43;;;7.67;;
12947;SDS011;6539;49.476;8.484;2023-04-06T02:01:02;14.43;;;8.80;;
12947;SDS011;6539;49.476;8.484;2023-04-06T02:03:28;10.20;;;8.00;;
12947;SDS011;6539;49.476;8.484;2023-04-06T02:05:53;11.07;;;8.07;;
12947;SDS011;6539;49.476;8.484;2023-04-06T02:08:19;10.07;;;7.97;;
12947;SDS011;6539;49.476;8.484;2023-04-06T02:10:45;10.63;;;8.10;;
12947;SDS011;6539;49.476;8.484;2023-04-06T02:13:13;13.83;;;7.93;;
12947;SDS011;6539;49.476;8.484;2023-04-06T02:15:41;9.50;;;7.40;;
12947;SDS011;6539;49.476;8.484;2023-04-06T02:18:09;9.60;;;7.23;;
12947;SDS011;6539;49.476;8.484;2023-04-06T02:20:38;11.07;;;7.33;;
12947;SDS011;6539;49.476;8.484;2023-04-06T02:23:03;11.77;;;7.33;;
12947;SDS011;6539;49.476;8.484;2023-04-06T02:25:29;10.63;;;7.50;;
12947;SDS011;6539;49.476;8.484;2023-04-06T02:27:57;10.93;;;8.13;;
12947;SDS011;6539;49.476;8.484;2023-04-06T02:30:23;12.27;;;7.93;;
12947;SDS011;6539;49.476;8.484;2023-04-06T02:32:51;10.10;;;7.70;;
12947;SDS011;6539;49.476;8.484;2023-04-06T02:35:17;10.47;;;7.63;;
12947;SDS011;6539;49.476;8.484;2023-04-06T02:37:43;12.40;;;7.23;;
12947;SDS011;6539;49.476;8.484;2023-04-06T02:40:09;10.60;;;8.03;;
12947;SDS011;6539;49.476;8.484;2023-04-06T02:42:35;11.50;;;8.33;;
12947;SDS011;6539;49.476;8.484;2023-04-06T02:45:04;9.90;;;7.83;;
12947;SDS011;6539;49.476;8.484;2023-04-06T02:47:30;10.07;;;8.10;;
12947;SDS011;6539;49.476;8.484;2023-04-06T02:49:58;10.10;;;7.47;;
12947;SDS011;6539;49.476;8.484;2023-04-06T02:52:27;10.20;;;7.90;;
12947;SDS011;6539;49.476;8.484;2023-04-06T02:54:55;9.70;;;7.57;;
12947;SDS011;6539;49.476;8.484;2023-04-06T02:57:21;10.93;;;7.77;;
12947;SDS011;6539;49.476;8.484;2023-04-06T02:59:46;13.43;;;8.07;;
12947;SDS011;6539;49.476;8.484;2023-04-06T03:02:12;10.60;;;7.70;;
12947;SDS011;6539;49.476;8.484;2023-04-06T03:04:38;12.17;;;6.80;;
12947;SDS011;6539;49.476;8.484;2023-04-06T03:07:06;9.30;;;7.67;;
12947;SDS011;6539;49.476;8.484;2023-04-06T03:09:36;10.80;;;6.90;;
12947;SDS011;6539;49.476;8.484;2023-04-06T03:12:02;9.87;;;7.57;;
12947;SDS011;6539;49.476;8.484;2023-04-06T03:14:28;9.83;;;7.00;;
12947;SDS011;6539;49.476;8.484;2023-04-06T03:16:54;10.97;;;7.10;;
12947;SDS011;6539;49.476;8.484;2023-04-06T03:19:20;12.73;;;7.50;;
12947;SDS011;6539;49.476;8.484;2023-04-06T03:21:46;9.40;;;6.63;;
12947;SDS011;6539;49.476;8.484;2023-04-06T03:24:12;10.27;;;7.70;;
12947;SDS011;6539;49.476;8.484;2023-04-06T03:26:40;11.70;;;7.43;;
12947;SDS011;6539;49.476;8.484;2023-04-06T03:29:06;11.23;;;8.00;;
12947;SDS011;6539;49.476;8.484;2023-04-06T03:31:33;9.73;;;8.07;;
12947;SDS011;6539;49.476;8.484;2023-04-06T03:33:58;15.07;;;8.83;;
12947;SDS011;6539;49.476;8.484;2023-04-06T03:36:27;12.20;;;8.50;;
12947;SDS011;6539;49.476;8.484;2023-04-06T03:38:55;11.17;;;8.37;;
12947;SDS011;6539;49.476;8.484;2023-04-06T03:41:23;13.37;;;8.47;;
12947;SDS011;6539;49.476;8.484;2023-04-06T03:43:52;11.40;;;8.23;;
12947;SDS011;6539;49.476;8.484;2023-04-06T03:46:20;14.37;;;8.27;;
12947;SDS011;6539;49.476;8.484;2023-04-06T03:48:48;9.20;;;7.23;;
12947;SDS011;6539;49.476;8.484;2023-04-06T03:51:16;10.47;;;8.00;;
12947;SDS011;6539;49.476;8.484;2023-04-06T03:53:42;10.87;;;7.73;;
12947;SDS011;6539;49.476;8.484;2023-04-06T03:56:08;11.43;;;7.57;;
12947;SDS011;6539;49.476;8.484;2023-04-06T03:58:36;10.57;;;7.37;;
12947;SDS011;6539;49.476;8.484;2023-04-06T04:01:04;9.70;;;7.83;;
12947;SDS011;6539;49.476;8.484;2023-04-06T04:03:30;10.23;;;6.80;;
12947;SDS011;6539;49.476;8.484;2023-04-06T04:05:58;8.33;;;7.30;;
12947;SDS011;6539;49.476;8.484;2023-04-06T04:08:24;7.63;;;6.57;;
12947;SDS011;6539;49.476;8.484;2023-04-06T04:10:50;10.53;;;7.10;;
12947;SDS011;6539;49.476;8.484;2023-04-06T04:13:15;10.03;;;7.03;;
12947;SDS011;6539;49.476;8.484;2023-04-06T04:15:43;10.20;;;7.70;;
12947;SDS011;6539;49.476;8.484;2023-04-06T04:18:12;11.20;;;7.40;;
12947;SDS011;6539;49.476;8.484;2023-04-06T04:20:41;9.77;;;6.83;;
12947;SDS011;6539;49.476;8.484;2023-04-06T04:23:09;10.17;;;7.70;;
12947;SDS011;6539;49.476;8.484;2023-04-06T04:25:35;10.17;;;7.33;;
12947;SDS011;6539;49.476;8.484;2023-04-06T04:28:01;8.30;;;7.13;;
12947;SDS011;6539;49.476;8.484;2023-04-06T04:30:30;10.93;;;8.13;;
12947;SDS011;6539;49.476;8.484;2023-04-06T04:32:55;8.97;;;7.57;;
12947;SDS011;6539;49.476;8.484;2023-04-06T04:35:24;8.73;;;7.83;;
12947;SDS011;6539;49.476;8.484;2023-04-06T04:37:52;10.13;;;7.40;;
12947;SDS011;6539;49.476;8.484;2023-04-06T04:40:21;9.07;;;7.63;;
12947;SDS011;6539;49.476;8.484;2023-04-06T04:42:49;9.07;;;7.53;;
12947;SDS011;6539;49.476;8.484;2023-04-06T04:45:18;8.23;;;6.93;;
12947;SDS011;6539;49.476;8.484;2023-04-06T04:47:46;7.90;;;7.10;;
12947;SDS011;6539;49.476;8.484;2023-04-06T04:50:12;10.50;;;7.60;;
12947;SDS011;6539;49.476;8.484;2023-04-06T04:52:38;9.67;;;7.30;;
12947;SDS011;6539;49.476;8.484;2023-04-06T04:55:06;10.73;;;7.50;;
12947;SDS011;6539;49.476;8.484;2023-04-06T04:57:34;10.13;;;6.77;;
12947;SDS011;6539;49.476;8.484;2023-04-06T05:00:00;10.20;;;7.63;;
12947;SDS011;6539;49.476;8.484;2023-04-06T05:02:27;12.70;;;7.20;;
12947;SDS011;6539;49.476;8.484;2023-04-06T05:04:54;11.87;;;7.17;;
12947;SDS011;6539;49.476;8.484;2023-04-06T05:07:23;13.17;;;8.37;;
12947;SDS011;6539;49.476;8.484;2023-04-06T05:09:53;10.20;;;8.30;;
12947;SDS011;6539;49.476;8.484;2023-04-06T05:12:24;12.23;;;7.60;;
12947;SDS011;6539;49.476;8.484;2023-04-06T05:14:53;13.03;;;8.30;;
12947;SDS011;6539;49.476;8.484;2023-04-06T05:17:19;10.40;;;7.60;;
12947;SDS011;6539;49.476;8.484;2023-04-06T05:19:45;10.83;;;8.63;;
12947;SDS011;6539;49.476;8.484;2023-04-06T05:22:13;12.07;;;8.10;;
12947;SDS011;6539;49.476;8.484;2023-04-06T05:24:45;15.50;;;8.57;;
12947;SDS011;6539;49.476;8.484;2023-04-06T05:27:11;11.73;;;8.40;;
12947;SDS011;6539;49.476;8.484;2023-04-06T05:29:37;11.13;;;8.00;;
12947;SDS011;6539;49.476;8.484;2023-04-06T05:32:03;13.27;;;8.37;;
12947;SDS011;6539;49.476;8.484;2023-04-06T05:34:31;14.23;;;8.63;;
12947;SDS011;6539;49.476;8.484;2023-04-06T05:36:57;13.73;;;8.30;;
12947;SDS011;6539;49.476;8.484;2023-04-06T05:39:23;14.20;;;8.63;;
12947;SDS011;6539;49.476;8.484;2023-04-06T05:41:49;15.13;;;8.40;;
12947;SDS011;6539;49.476;8.484;2023-04-06T05:44:15;11.20;;;8.73;;
12947;SDS011;6539;49.476;8.484;2023-04-06T05:46:45;13.27;;;7.87;;
12947;SDS011;6539;49.476;8.484;2023-04-06T05:49:13;12.17;;;7.73;;
12947;SDS011;6539;49.476;8.484;2023-04-06T05:51:39;18.37;;;8.07;;
12947;SDS011;6539;49.476;8.484;2023-04-06T05:54:07;13.67;;;8.43;;
12947;SDS011;6539;49.476;8.484;2023-04-06T05:56:35;13.27;;;8.33;;
12947;SDS011;6539;49.476;8.484;2023-04-06T05:59:04;15.10;;;8.77;;
12947;SDS011;6539;49.476;8.484;2023-04-06T06:01:32;13.03;;;8.43;;
12947;SDS011;6539;49.476;8.484;2023-04-06T06:04:01;10.90;;;8.77;;
12947;SDS011;6539;49.476;8.484;2023-04-06T06:06:29;11.37;;;8.03;;
12947;SDS011;6539;49.476;8.484;2023-04-06T06:08:58;11.67;;;8.13;;
12947;SDS011;6539;49.476;8.484;2023-04-06T06:11:28;9.00;;;7.60;;
12947;SDS011;6539;49.476;8.484;2023-04-06T06:13:57;11.37;;;8.10;;
12947;SDS011;6539;49.476;8.484;2023-04-06T06:16:32;15.20;;;8.27;;
12947;SDS011;6539;49.476;8.484;2023-04-06T06:18:58;8.87;;;7.70;;
12947;SDS011;6539;49.476;8.484;2023-04-06T06:21:24;9.63;;;7.77;;
12947;SDS011;6539;49.476;8.484;2023-04-06T06:23:50;13.83;;;8.07;;
12947;SDS011;6539;49.476;8.484;2023-04-06T06:26:21;8.27;;;7.33;;
12947;SDS011;6539;49.476;8.484;2023-04-06T06:28:49;9.47;;;7.70;;
12947;SDS011;6539;49.476;8.484;2023-04-06T06:31:15;11.50;;;8.23;;
12947;SDS011;6539;49.476;8.484;2023-04-06T06:33:48;8.63;;;6.90;;
12947;SDS011;6539;49.476;8.484;2023-04-06T06:36:19;9.00;;;6.67;;
12947;SDS011;6539;49.476;8.484;2023-04-06T06:38:49;10.20;;;6.90;;
12947;SDS011;6539;49.476;8.484;2023-04-06T06:41:15;8.47;;;7.10;;
12947;SDS011;6539;49.476;8.484;2023-04-06T06:43:44;9.10;;;7.13;;
12947;SDS011;6539;49.476;8.484;2023-04-06T06:46:14;10.60;;;7.33;;
12947;SDS011;6539;49.476;8.484;2023-04-06T06:48:40;11.90;;;7.87;;
12947;SDS011;6539;49.476;8.484;2023-04-06T06:51:07;11.00;;;7.90;;
12947;SDS011;6539;49.476;8.484;2023-04-06T06:53:36;13.73;;;7.80;;
12947;SDS011;6539;49.476;8.484;2023-04-06T06:56:04;9.30;;;7.33;;
12947;SDS011;6539;49.476;8.484;2023-04-06T06:58:31;10.70;;;7.50;;
12947;SDS011;6539;49.476;8.484;2023-04-06T07:00:59;12.83;;;7.73;;
12947;SDS011;6539;49.476;8.484;2023-04-06T07:03:25;9.33;;;7.10;;
12947;SDS011;6539;49.476;8.484;2023-04-06T07:05:55;12.43;;;8.10;;
12947;SDS011;6539;49.476;8.484;2023-04-06T07:08:25;9.10;;;7.53;;
12947;SDS011;6539;49.476;8.484;2023-04-06T07:10:51;10.30;;;7.87;;
12947;SDS011;6539;49.476;8.484;2023-04-06T07:13:18;8.83;;;7.40;;
12947;SDS011;6539;49.476;8.484;2023-04-06T07:15:51;12.67;;;8.27;;
12947;SDS011;6539;49.476;8.484;2023-04-06T07:18:22;9.60;;;7.77;;
12947;SDS011;6539;49.476;8.484;2023-04-06T07:20:55;11.07;;;7.97;;
12947;SDS011;6539;49.476;8.484;2023-04-06T07:23:21;13.97;;;8.13;;
12947;SDS011;6539;49.476;8.484;2023-04-06T07:25:49;8.97;;;7.70;;
12947;SDS011;6539;49.476;8.484;2023-04-06T07:28:18;9.00;;;7.97;;
12947;SDS011;6539;49.476;8.484;2023-04-06T07:30:44;11.47;;;8.90;;
12947;SDS011;6539;49.476;8.484;2023-04-06T07:33:18;10.50;;;7.83;;
12947;SDS011;6539;49.476;8.484;2023-04-06T07:35:46;11.50;;;7.93;;
12947;SDS011;6539;49.476;8.484;2023-04-06T07:38:11;11.83;;;8.63;;
12947;SDS011;6539;49.476;8.484;2023-04-06T07:40:37;15.13;;;8.17;;
12947;SDS011;6539;49.476;8.484;2023-04-06T07:43:03;10.70;;;7.67;;
12947;SDS011;6539;49.476;8.484;2023-04-06T07:45:31;10.20;;;8.27;;
12947;SDS011;6539;49.476;8.484;2023-04-06T07:47:59;12.17;;;8.67;;
12947;SDS011;6539;49.476;8.484;2023-04-06T07:50:27;10.87;;;8.80;;
12947;SDS011;6539;49.476;8.484;2023-04-06T07:52:55;9.93;;;8.27;;
12947;SDS011;6539;49.476;8.484;2023-04-06T07:55:24;9.83;;;8.20;;
12947;SDS011;6539;49.476;8.484;2023-04-06T07:57:53;10.90;;;7.90;;
12947;SDS011;6539;49.476;8.484;2023-04-06T08:00:21;10.77;;;8.77;;
12947;SDS011;6539;49.476;8.484;2023-04-06T08:02:47;10.20;;;8.17;;
12947;SDS011;6539;49.476;8.484;2023-04-06T08:05:16;12.40;;;8.97;;
12947;SDS011;6539;49.476;8.484;2023-04-06T08:07:45;11.43;;;9.30;;
12947;SDS011;6539;49.476;8.484;2023-04-06T08:10:11;11.20;;;8.33;;
12947;SDS011;6539;49.476;8.484;2023-04-06T08:12:39;13.33;;;8.70;;
12947;SDS011;6539;49.476;8.484;2023-04-06T08:15:07;9.23;;;8.10;;
12947;SDS011;6539;49.476;8.484;2023-04-06T08:17:35;12.37;;;8.43;;
12947;SDS011;6539;49.476;8.484;2023-04-06T08:20:03;10.80;;;8.57;;
12947;SDS011;6539;49.476;8.484;2023-04-06T08:22:32;11.33;;;8.53;;
12947;SDS011;6539;49.476;8.484;2023-04-06T08:25:03;9.27;;;8.27;;
12947;SDS011;6539;49.476;8.484;2023-04-06T08:27:29;9.50;;;8.20;;
12947;SDS011;6539;49.476;8.484;2023-04-06T08:29:54;9.97;;;8.50;;
12947;SDS011;6539;49.476;8.484;2023-04-06T08:32:20;12.00;;;7.67;;
12947;SDS011;6539;49.476;8.484;2023-04-06T08:34:46;11.43;;;8.57;;
12947;SDS011;6539;49.476;8.484;2023-04-06T08:37:12;11.07;;;7.83;;
12947;SDS011;6539;49.476;8.484;2023-04-06T08:39:40;9.73;;;8.40;;
12947;SDS011;6539;49.476;8.484;2023-04-06T08:42:10;9.97;;;8.30;;
12947;SDS011;6539;49.476;8.484;2023-04-06T08:44:44;11.40;;;8.33;;
12947;SDS011;6539;49.476;8.484;2023-04-06T08:47:11;10.63;;;8.17;;
12947;SDS011;6539;49.476;8.484;2023-04-06T08:49:40;9.27;;;8.37;;
12947;SDS011;6539;49.476;8.484;2023-04-06T08:52:12;9.37;;;8.33;;
12947;SDS011;6539;49.476;8.484;2023-04-06T08:54:42;9.90;;;8.10;;
12947;SDS011;6539;49.476;8.484;2023-04-06T08:57:11;9.97;;;7.90;;
12947;SDS011;6539;49.476;8.484;2023-04-06T08:59:38;10.73;;;8.13;;
12947;SDS011;6539;49.476;8.484;2023-04-06T09:02:04;8.67;;;7.43;;
12947;SDS011;6539;49.476;8.484;2023-04-06T09:04:40;9.73;;;7.83;;
12947;SDS011;6539;49.476;8.484;2023-04-06T09:07:09;9.37;;;7.30;;
12947;SDS011;6539;49.476;8.484;2023-04-06T09:09:37;10.43;;;7.63;;
12947;SDS011;6539;49.476;8.484;2023-04-06T09:12:27;9.93;;;7.33;;
12947;SDS011;6539;49.476;8.484;2023-04-06T09:14:58;10.90;;;7.37;;
12947;SDS011;6539;49.476;8.484;2023-04-06T09:17:28;13.93;;;7.73;;
12947;SDS011;6539;49.476;8.484;2023-04-06T09:20:01;10.00;;;7.40;;
12947;SDS011;6539;49.476;8.484;2023-04-06T09:22:35;11.20;;;7.20;;
12947;SDS011;6539;49.476;8.484;2023-04-06T09:25:02;10.63;;;7.90;;
12947;SDS011;6539;49.476;8.484;2023-04-06T09:27:30;8.20;;;6.60;;
12947;SDS011;6539;49.476;8.484;2023-04-06T09:30:10;9.17;;;6.90;;
12947;SDS011;6539;49.476;8.484;2023-04-06T09:32:49;8.70;;;7.03;;
12947;SDS011;6539;49.476;8.484;2023-04-06T09:35:19;7.90;;;6.67;;
12947;SDS011;6539;49.476;8.484;2023-04-06T09:37:49;9.70;;;7.03;;
12947;SDS011;6539;49.476;8.484;2023-04-06T09:40:20;10.17;;;7.53;;
12947;SDS011;6539;49.476;8.484;2023-04-06T09:42:49;10.07;;;6.97;;
12947;SDS011;6539;49.476;8.484;2023-04-06T09:45:22;8.47;;;7.03;;
12947;SDS011;6539;49.476;8.484;2023-04-06T09:47:56;8.77;;;6.77;;
12947;SDS011;6539;49.476;8.484;2023-04-06T09:50:24;7.53;;;6.53;;
12947;SDS011;6539;49.476;8.484;2023-04-06T09:52:53;10.40;;;7.30;;
12947;SDS011;6539;49.476;8.484;2023-04-06T09:55:28;9.50;;;7.20;;
12947;SDS011;6539;49.476;8.484;2023-04-06T09:58:04;8.17;;;7.30;;
12947;SDS011;6539;49.476;8.484;2023-04-06T10:00:43;9.07;;;7.30;;
12947;SDS011;6539;49.476;8.484;2023-04-06T10:03:30;8.20;;;6.70;;
12947;SDS011;6539;49.476;8.484;2023-04-06T10:06:23;8.83;;;7.37;;
12947;SDS011;6539;49.476;8.484;2023-04-06T10:08:58;8.10;;;7.13;;
12947;SDS011;6539;49.476;8.484;2023-04-06T10:11:28;10.30;;;7.37;;
12947;SDS011;6539;49.476;8.484;2023-04-06T10:13:58;10.50;;;7.83;;
12947;SDS011;6539;49.476;8.484;2023-04-06T10:16:24;8.00;;;6.47;;
12947;SDS011;6539;49.476;8.484;2023-04-06T10:18:56;8.70;;;7.03;;
12947;SDS011;6539;49.476;8.484;2023-04-06T10:21:32;9.07;;;7.47;;
12947;SDS011;6539;49.476;8.484;2023-04-06T10:24:01;13.30;;;7.77;;
12947;SDS011;6539;49.476;8.484;2023-04-06T10:26:35;10.50;;;7.17;;
12947;SDS011;6539;49.476;8.484;2023-04-06T10:29:07;11.20;;;6.80;;
12947;SDS011;6539;49.476;8.484;2023-04-06T10:31:39;9.13;;;7.60;;
12947;SDS011;6539;49.476;8.484;2023-04-06T10:34:08;10.53;;;7.13;;
12947;SDS011;6539;49.476;8.484;2023-04-06T10:36:34;7.60;;;6.80;;
12947;SDS011;6539;49.476;8.484;2023-04-06T10:39:03;9.03;;;7.33;;
12947;SDS011;6539;49.476;8.484;2023-04-06T10:41:43;9.07;;;6.73;;
12947;SDS011;6539;49.476;8.484;2023-04-06T10:44:23;7.13;;;6.37;;
12947;SDS011;6539;49.476;8.484;2023-04-06T10:46:56;11.07;;;6.97;;
12947;SDS011;6539;49.476;8.484;2023-04-06T10:49:26;9.80;;;6.73;;
12947;SDS011;6539;49.476;8.484;2023-04-06T10:51:55;9.30;;;6.60;;
12947;SDS011;6539;49.476;8.484;2023-04-06T10:54:23;7.80;;;6.43;;
12947;SDS011;6539;49.476;8.484;2023-04-06T10:56:52;9.80;;;6.53;;
12947;SDS011;6539;49.476;8.484;2023-04-06T10:59:21;8.67;;;6.83;;
12947;SDS011;6539;49.476;8.484;2023-04-06T11:01:49;9.47;;;6.37;;
12947;SDS011;6539;49.476;8.484;2023-04-06T11:04:16;8.00;;;6.37;;
12947;SDS011;6539;49.476;8.484;2023-04-06T11:06:46;8.87;;;6.17;;
12947;SDS011;6539;49.476;8.484;2023-04-06T11:09:23;9.00;;;6.43;;
12947;SDS011;6539;49.476;8.484;2023-04-06T11:11:55;7.40;;;6.27;;
12947;SDS011;6539;49.476;8.484;2023-04-06T11:14:26;7.53;;;5.77;;
12947;SDS011;6539;49.476;8.484;2023-04-06T11:16:56;9.27;;;6.57;;
12947;SDS011;6539;49.476;8.484;2023-04-06T11:19:22;8.43;;;6.33;;
12947;SDS011;6539;49.476;8.484;2023-04-06T11:21:48;7.63;;;6.30;;
12947;SDS011;6539;49.476;8.484;2023-04-06T11:29:21;8.43;;;6.53;;
12947;SDS011;6539;49.476;8.484;2023-04-06T11:32:00;7.97;;;5.93;;
12947;SDS011;6539;49.476;8.484;2023-04-06T11:34:29;8.10;;;6.43;;
12947;SDS011;6539;49.476;8.484;2023-04-06T11:37:03;9.77;;;6.80;;
12947;SDS011;6539;49.476;8.484;2023-04-06T11:39:48;7.93;;;6.63;;
12947;SDS011;6539;49.476;8.484;2023-04-06T11:42:26;10.60;;;7.23;;
12947;SDS011;6539;49.476;8.484;2023-04-06T11:44:54;7.83;;;6.70;;
12947;SDS011;6539;49.476;8.484;2023-04-06T11:47:28;9.20;;;7.07;;
12947;SDS011;6539;49.476;8.484;2023-04-06T11:50:09;8.33;;;7.03;;
12947;SDS011;6539;49.476;8.484;2023-04-06T11:52:39;8.70;;;7.10;;
12947;SDS011;6539;49.476;8.484;2023-04-06T11:57:41;8.87;;;7.27;;
12947;SDS011;6539;49.476;8.484;2023-04-06T12:00:10;10.20;;;7.83;;
12947;SDS011;6539;49.476;8.484;2023-04-06T12:02:44;9.17;;;6.83;;
12947;SDS011;6539;49.476;8.484;2023-04-06T12:05:14;9.03;;;7.30;;
12947;SDS011;6539;49.476;8.484;2023-04-06T12:07:42;9.90;;;6.90;;
12947;SDS011;6539;49.476;8.484;2023-04-06T12:10:08;9.57;;;7.60;;
12947;SDS011;6539;49.476;8.484;2023-04-06T12:12:39;10.77;;;7.23;;
12947;SDS011;6539;49.476;8.484;2023-04-06T12:15:07;9.90;;;7.50;;
12947;SDS011;6539;49.476;8.484;2023-04-06T12:17:34;9.50;;;8.10;;
12947;SDS011;6539;49.476;8.484;2023-04-06T12:19:59;10.77;;;7.27;;
12947;SDS011;6539;49.476;8.484;2023-04-06T12:22:29;10.17;;;8.40;;
12947;SDS011;6539;49.476;8.484;2023-04-06T12:24:55;9.73;;;8.10;;
12947;SDS011;6539;49.476;8.484;2023-04-06T12:27:21;9.97;;;7.67;;
12947;SDS011;6539;49.476;8.484;2023-04-06T12:29:47;13.67;;;9.07;;
12947;SDS011;6539;49.476;8.484;2023-04-06T12:32:12;13.27;;;8.20;;
12947;SDS011;6539;49.476;8.484;2023-04-06T12:34:40;10.27;;;8.40;;
12947;SDS011;6539;49.476;8.484;2023-04-06T12:37:08;10.43;;;8.13;;
12947;SDS011;6539;49.476;8.484;2023-04-06T12:39:36;9.67;;;7.80;;
12947;SDS011;6539;49.476;8.484;2023-04-06T12:42:02;8.87;;;7.97;;
12947;SDS011;6539;49.476;8.484;2023-04-06T12:44:28;8.87;;;7.07;;
12947;SDS011;6539;49.476;8.484;2023-04-06T12:46:56;11.90;;;7.43;;
12947;SDS011;6539;49.476;8.484;2023-04-06T12:49:25;9.20;;;7.60;;
12947;SDS011;6539;49.476;8.484;2023-04-06T12:51:51;9.80;;;7.90;;
12947;SDS011;6539;49.476;8.484;2023-04-06T12:54:17;10.83;;;8.33;;
12947;SDS011;6539;49.476;8.484;2023-04-06T12:56:42;14.87;;;8.50;;
12947;SDS011;6539;49.476;8.484;2023-04-06T12:59:10;11.33;;;7.97;;
12947;SDS011;6539;49.476;8.484;2023-04-06T13:01:39;10.47;;;8.03;;
12947;SDS011;6539;49.476;8.484;2023-04-06T13:04:09;9.67;;;7.97;;
12947;SDS011;6539;49.476;8.484;2023-04-06T13:06:37;8.87;;;7.33;;
12947;SDS011;6539;49.476;8.484;2023-04-06T13:09:05;9.53;;;7.87;;
12947;SDS011;6539;49.476;8.484;2023-04-06T13:11:32;9.90;;;7.93;;
12947;SDS011;6539;49.476;8.484;2023-04-06T13:14:00;9.50;;;8.03;;
12947;SDS011;6539;49.476;8.484;2023-04-06T13:16:26;10.70;;;7.63;;
12947;SDS011;6539;49.476;8.484;2023-04-06T13:18:52;10.60;;;7.53;;
12947;SDS011;6539;49.476;8.484;2023-04-06T13:21:21;9.00;;;7.00;;
12947;SDS011;6539;49.476;8.484;2023-04-06T13:23:49;12.07;;;7.10;;
12947;SDS011;6539;49.476;8.484;2023-04-06T13:26:15;9.87;;;7.43;;
12947;SDS011;6539;49.476;8.484;2023-04-06T13:28:41;7.70;;;6.60;;
12947;SDS011;6539;49.476;8.484;2023-04-06T13:31:07;9.03;;;7.10;;
12947;SDS011;6539;49.476;8.484;2023-04-06T13:33:34;8.53;;;6.17;;
12947;SDS011;6539;49.476;8.484;2023-04-06T13:36:00;7.37;;;5.87;;
12947;SDS011;6539;49.476;8.484;2023-04-06T13:38:27;6.60;;;5.90;;
12947;SDS011;6539;49.476;8.484;2023-04-06T13:40:56;8.30;;;6.53;;
12947;SDS011;6539;49.476;8.484;2023-04-06T13:43:27;8.37;;;5.90;;
12947;SDS011;6539;49.476;8.484;2023-04-06T13:45:53;7.00;;;5.63;;
12947;SDS011;6539;49.476;8.484;2023-04-06T13:48:20;10.00;;;6.57;;
12947;SDS011;6539;49.476;8.484;2023-04-06T13:50:46;7.73;;;6.20;;
12947;SDS011;6539;49.476;8.484;2023-04-06T13:53:13;7.33;;;5.27;;
12947;SDS011;6539;49.476;8.484;2023-04-06T13:55:39;8.43;;;6.10;;
12947;SDS011;6539;49.476;8.484;2023-04-06T13:58:05;6.70;;;5.83;;
12947;SDS011;6539;49.476;8.484;2023-04-06T14:00:31;7.03;;;5.60;;
12947;SDS011;6539;49.476;8.484;2023-04-06T14:03:00;5.77;;;5.17;;
12947;SDS011;6539;49.476;8.484;2023-04-06T14:05:31;9.70;;;5.60;;
12947;SDS011;6539;49.476;8.484;2023-04-06T14:08:00;7.40;;;6.03;;
12947;SDS011;6539;49.476;8.484;2023-04-06T14:10:26;9.93;;;5.57;;
12947;SDS011;6539;49.476;8.484;2023-04-06T14:12:54;7.27;;;5.40;;
12947;SDS011;6539;49.476;8.484;2023-04-06T14:15:25;10.60;;;5.33;;
12947;SDS011;6539;49.476;8.484;2023-04-06T14:17:58;6.73;;;4.80;;
12947;SDS011;6539;49.476;8.484;2023-04-06T14:20:24;6.57;;;5.37;;
12947;SDS011;6539;49.476;8.484;2023-04-06T14:22:51;11.07;;;5.20;;
12947;SDS011;6539;49.476;8.484;2023-04-06T14:25:22;7.07;;;5.37;;
12947;SDS011;6539;49.476;8.484;2023-04-06T14:27:50;6.10;;;4.53;;
12947;SDS011;6539;49.476;8.484;2023-04-06T14:30:16;8.47;;;5.97;;
12947;SDS011;6539;49.476;8.484;2023-04-06T14:32:44;9.00;;;5.63;;
12947;SDS011;6539;49.476;8.484;2023-04-06T14:35:10;8.07;;;5.10;;
12947;SDS011;6539;49.476;8.484;2023-04-06T14:37:36;6.43;;;5.30;;
12947;SDS011;6539;49.476;8.484;2023-04-06T14:40:02;9.57;;;6.10;;
12947;SDS011;6539;49.476;8.484;2023-04-06T14:42:29;10.43;;;6.07;;
12947;SDS011;6539;49.476;8.484;2023-04-06T14:44:54;7.40;;;5.93;;
12947;SDS011;6539;49.476;8.484;2023-04-06T14:47:20;7.93;;;5.73;;
12947;SDS011;6539;49.476;8.484;2023-04-06T14:49:50;9.87;;;6.67;;
12947;SDS011;6539;49.476;8.484;2023-04-06T14:52:18;10.50;;;6.13;;
12947;SDS011;6539;49.476;8.484;2023-04-06T14:54:48;7.87;;;5.93;;
12947;SDS011;6539;49.476;8.484;2023-04-06T14:57:14;7.77;;;6.13;;
12947;SDS011;6539;49.476;8.484;2023-04-06T14:59:40;9.50;;;5.70;;
12947;SDS011;6539;49.476;8.484;2023-04-06T15:02:06;9.17;;;5.63;;
12947;SDS011;6539;49.476;8.484;2023-04-06T15:04:33;6.27;;;4.77;;
12947;SDS011;6539;49.476;8.484;2023-04-06T15:07:02;6.50;;;4.90;;